Time;durP1;ratioP1;P1;durP2;ratioP2;P2;SDS_P1;SDS_P2;PMS_P1;PMS_P2;Temp;Humidity;BMP_temperature;BMP_pressure;BME280_temperature;BME280_humidity;BME280_pressure;Samples;Min_cycle;Max_cycle;Signal;HPM_P1;HPM_P2
2022/06/09 00:01:12;;;;;;;2.23;1.33;;;16.50;99.90;;;;;;5054172;28;20441;-85
2022/06/09 00:03:46;;;;;;;2.00;1.43;;;16.50;99.90;;;;;;5038814;28;20434;-88
2022/06/09 00:06:14;;;;;;;2.17;1.27;;;16.60;99.90;;;;;;5039234;28;20519;-85
2022/06/09 00:08:44;;;;;;;1.30;1.07;;;16.60;99.90;;;;;;5040795;28;20460;-83
2022/06/09 00:11:15;;;;;;;1.40;1.10;;;16.60;99.90;;;;;;5048221;28;20436;-83
2022/06/09 00:13:45;;;;;;;1.97;1.07;;;16.60;99.90;;;;;;5051050;28;20876;-87
2022/06/09 00:16:13;;;;;;;2.90;2.13;;;16.70;99.90;;;;;;5050517;28;20444;-83
2022/06/09 00:18:40;;;;;;;1.50;0.93;;;16.70;99.90;;;;;;5042226;28;20559;-84
2022/06/09 00:21:07;;;;;;;2.20;1.80;;;16.70;99.90;;;;;;5058654;28;20463;-84
2022/06/09 00:23:46;;;;;;;2.03;1.23;;;16.80;99.90;;;;;;5060250;28;20781;-85
2022/06/09 00:26:13;;;;;;;3.07;1.60;;;16.70;99.90;;;;;;5045138;28;20441;-85
2022/06/09 00:28:40;;;;;;;2.20;1.30;;;16.70;99.90;;;;;;5054752;28;20439;-87
2022/06/09 00:31:08;;;;;;;1.40;0.90;;;16.70;99.90;;;;;;5040513;28;20452;-86
2022/06/09 00:33:34;;;;;;;2.17;1.10;;;16.80;99.90;;;;;;5049620;28;20479;-85
2022/06/09 00:36:01;;;;;;;2.00;0.93;;;16.90;99.90;;;;;;5053572;28;20439;-86
2022/06/09 00:38:28;;;;;;;1.90;1.07;;;16.90;99.90;;;;;;5055361;28;20440;-86
2022/06/09 00:40:59;;;;;;;1.97;1.00;;;16.90;99.90;;;;;;5054398;28;20468;-84
2022/06/09 00:43:26;;;;;;;2.17;1.20;;;17.00;99.90;;;;;;5052514;28;20441;-84
2022/06/09 00:46:03;;;;;;;1.70;1.23;;;16.90;99.90;;;;;;5055905;28;20436;-85
2022/06/09 00:48:38;;;;;;;1.80;0.77;;;17.00;99.90;;;;;;5051991;28;20446;-85
2022/06/09 00:51:15;;;;;;;1.90;1.20;;;17.00;99.90;;;;;;5041510;28;20441;-86
2022/06/09 00:53:43;;;;;;;1.50;1.00;;;16.90;99.90;;;;;;5039474;28;20482;-85
2022/06/09 00:56:13;;;;;;;8.47;6.30;;;16.90;99.90;;;;;;5040686;28;20444;-85
2022/06/09 00:58:42;;;;;;;2.07;1.00;;;16.90;99.90;;;;;;5037664;28;20486;-85
2022/06/09 01:01:13;;;;;;;1.60;1.30;;;16.90;99.90;;;;;;5039138;28;20456;-86
2022/06/09 01:03:46;;;;;;;2.80;1.10;;;16.90;99.90;;;;;;5038829;28;20440;-85
2022/06/09 01:06:18;;;;;;;1.20;1.00;;;16.80;99.90;;;;;;5038829;28;20444;-85
2022/06/09 01:08:49;;;;;;;1.20;0.80;;;16.80;99.90;;;;;;5037901;28;20468;-84
2022/06/09 01:11:16;;;;;;;1.50;0.80;;;16.70;99.90;;;;;;5042223;28;20448;-83
2022/06/09 01:13:43;;;;;;;1.53;0.73;;;16.70;99.90;;;;;;5047713;28;20485;-84
2022/06/09 01:16:21;;;;;;;1.47;1.03;;;16.70;99.90;;;;;;5043623;28;20814;-84
2022/06/09 01:18:59;;;;;;;1.07;0.63;;;16.60;99.90;;;;;;5039618;28;20468;-85
2022/06/09 01:21:50;;;;;;;1.77;0.80;;;16.40;99.90;;;;;;5038335;28;20544;-84
2022/06/09 01:24:47;;;;;;;1.10;0.70;;;16.40;99.90;;;;;;5042474;28;20441;-84
2022/06/09 01:27:30;;;;;;;3.10;0.80;;;16.30;99.90;;;;;;5043229;28;20502;-85
2022/06/09 01:30:06;;;;;;;3.57;0.77;;;16.30;99.90;;;;;;5019720;28;20512;-85
2022/06/09 01:32:38;;;;;;;1.20;0.80;;;16.20;99.90;;;;;;5036781;28;20432;-85
2022/06/09 01:35:13;;;;;;;1.47;0.70;;;16.00;99.90;;;;;;5035866;28;20985;-85
2022/06/09 01:37:42;;;;;;;2.30;0.80;;;15.80;99.90;;;;;;5039261;28;20451;-84
2022/06/09 01:40:12;;;;;;;1.30;0.70;;;15.70;99.90;;;;;;5049076;28;20449;-84
2022/06/09 01:42:41;;;;;;;1.20;0.70;;;15.60;99.90;;;;;;5055694;28;20476;-85
2022/06/09 01:45:13;;;;;;;2.00;0.60;;;15.60;99.90;;;;;;5053484;28;20508;-84
2022/06/09 01:47:47;;;;;;;1.37;0.87;;;15.50;99.90;;;;;;5044406;28;20438;-85
2022/06/09 01:50:19;;;;;;;1.43;0.60;;;15.50;99.90;;;;;;5039343;28;20483;-85
2022/06/09 01:52:47;;;;;;;1.50;1.13;;;15.40;99.90;;;;;;5039103;28;20441;-86
2022/06/09 01:55:17;;;;;;;1.67;0.97;;;15.40;99.90;;;;;;5037977;28;20484;-86
2022/06/09 01:57:47;;;;;;;2.13;0.93;;;15.40;99.90;;;;;;5047364;28;20528;-86
2022/06/09 02:00:16;;;;;;;2.53;1.00;;;15.40;99.90;;;;;;5049948;28;20475;-86
2022/06/09 02:02:48;;;;;;;1.63;0.80;;;15.40;99.90;;;;;;5045570;28;21188;-85
2022/06/09 02:05:20;;;;;;;2.60;0.90;;;15.40;99.90;;;;;;5039668;28;20445;-85
2022/06/09 02:07:48;;;;;;;2.50;1.10;;;15.40;99.90;;;;;;5043870;28;20441;-85
2022/06/09 02:10:21;;;;;;;1.97;0.90;;;15.30;99.90;;;;;;5040944;28;20460;-86
2022/06/09 02:12:50;;;;;;;2.83;0.97;;;15.30;99.90;;;;;;5040788;28;20436;-86
2022/06/09 02:15:24;;;;;;;6.97;1.60;;;15.30;99.90;;;;;;5038483;28;20477;-86
2022/06/09 02:17:53;;;;;;;2.87;1.10;;;15.30;99.90;;;;;;5043699;28;20438;-86
2022/06/09 02:20:22;;;;;;;2.43;1.10;;;15.20;99.90;;;;;;5047055;28;20459;-85
2022/06/09 02:22:49;;;;;;;1.87;0.93;;;15.20;99.90;;;;;;5056965;28;20452;-85
2022/06/09 02:25:16;;;;;;;4.43;1.50;;;15.20;99.90;;;;;;5042492;28;20435;-84
2022/06/09 02:27:43;;;;;;;1.70;1.10;;;15.20;99.90;;;;;;5035773;28;20452;-85
2022/06/09 02:30:11;;;;;;;3.27;1.10;;;15.10;99.90;;;;;;5038576;28;20471;-85
2022/06/09 02:32:38;;;;;;;3.33;1.40;;;15.20;99.90;;;;;;5056076;28;20442;-85
2022/06/09 02:35:07;;;;;;;2.17;1.40;;;15.10;99.90;;;;;;5032395;28;20489;-86
2022/06/09 02:37:34;;;;;;;2.90;1.87;;;15.10;99.90;;;;;;5040381;28;20432;-85
2022/06/09 02:40:00;;;;;;;4.10;1.43;;;15.10;99.90;;;;;;5038145;28;20461;-86
2022/06/09 02:42:27;;;;;;;2.97;1.67;;;15.20;99.90;;;;;;5038437;28;20445;-87
2022/06/09 02:44:54;;;;;;;2.93;1.47;;;15.20;99.90;;;;;;5038035;28;20448;-85
2022/06/09 02:47:20;;;;;;;1.90;1.70;;;15.20;99.90;;;;;;5043412;28;20430;-84
2022/06/09 02:49:47;;;;;;;2.23;1.10;;;15.20;99.90;;;;;;5045228;28;20469;-84
2022/06/09 02:52:15;;;;;;;2.20;1.20;;;15.20;99.90;;;;;;5050041;28;20440;-86
2022/06/09 02:54:42;;;;;;;3.33;1.67;;;15.10;99.90;;;;;;5046755;28;20476;-85
2022/06/09 02:57:08;;;;;;;3.00;1.63;;;15.10;99.90;;;;;;5056902;28;20452;-86
2022/06/09 02:59:35;;;;;;;5.03;1.37;;;15.10;99.90;;;;;;5054828;28;20462;-85
2022/06/09 03:02:02;;;;;;;3.93;1.60;;;15.00;99.90;;;;;;5034844;28;20438;-85
2022/06/09 03:04:29;;;;;;;3.10;2.30;;;15.00;99.90;;;;;;5052026;28;20447;-87
2022/06/09 03:06:55;;;;;;;5.03;1.40;;;15.10;99.90;;;;;;5045328;28;20437;-85
2022/06/09 03:09:24;;;;;;;3.67;1.70;;;15.10;99.90;;;;;;5038678;28;20465;-86
2022/06/09 03:11:50;;;;;;;2.90;1.37;;;15.20;99.90;;;;;;5052416;28;20879;-85
2022/06/09 03:14:17;;;;;;;2.27;1.40;;;15.20;99.90;;;;;;5045324;28;20484;-85
2022/06/09 03:16:44;;;;;;;2.17;1.60;;;15.20;99.90;;;;;;5041915;28;20437;-86
2022/06/09 03:19:10;;;;;;;3.93;1.73;;;15.20;99.90;;;;;;5041128;28;20472;-85
2022/06/09 03:21:37;;;;;;;2.53;1.60;;;15.20;99.90;;;;;;5040821;28;20441;-86
2022/06/09 03:24:05;;;;;;;2.93;1.30;;;15.20;99.90;;;;;;5039526;28;20434;-84
2022/06/09 03:26:33;;;;;;;6.90;1.73;;;15.20;99.90;;;;;;5046580;28;20947;-86
2022/06/09 03:28:59;;;;;;;2.40;1.60;;;15.20;99.90;;;;;;5041570;28;20500;-85
2022/06/09 03:31:26;;;;;;;3.20;1.33;;;15.30;99.90;;;;;;5060756;28;20424;-87
2022/06/09 03:33:53;;;;;;;4.00;2.23;;;15.20;99.90;;;;;;5037940;22;1091417;-88
2022/06/09 03:36:20;;;;;;;3.20;1.43;;;15.20;99.90;;;;;;5035936;28;20227;-90
2022/06/09 03:38:46;;;;;;;3.97;1.60;;;15.30;99.90;;;;;;5047958;28;20456;-86
2022/06/09 03:41:14;;;;;;;3.10;1.63;;;15.40;99.90;;;;;;5038389;28;20448;-88
2022/06/09 03:43:43;;;;;;;2.50;1.50;;;15.40;99.90;;;;;;5057607;28;20512;-85
2022/06/09 03:46:12;;;;;;;3.17;1.50;;;15.40;99.90;;;;;;5039041;28;21012;-85
2022/06/09 03:48:38;;;;;;;1.77;1.40;;;15.50;99.90;;;;;;5035986;28;20441;-87
2022/06/09 03:51:05;;;;;;;2.50;1.87;;;15.50;99.90;;;;;;5028900;28;20452;-86
2022/06/09 03:53:32;;;;;;;3.57;1.50;;;15.40;99.90;;;;;;5024115;28;20842;-86
2022/06/09 03:55:59;;;;;;;3.43;1.53;;;15.40;99.90;;;;;;5029752;28;20481;-86
2022/06/09 03:58:25;;;;;;;3.83;2.40;;;15.40;99.90;;;;;;5029537;28;20797;-86
2022/06/09 04:00:54;;;;;;;2.77;2.20;;;15.40;99.90;;;;;;5031082;28;20437;-86
2022/06/09 04:03:21;;;;;;;2.00;1.70;;;15.40;99.90;;;;;;5028101;28;20551;-85
2022/06/09 04:05:48;;;;;;;2.77;1.90;;;15.50;99.90;;;;;;5021852;28;20440;-85
2022/06/09 04:08:14;;;;;;;3.30;1.80;;;15.50;99.90;;;;;;5027133;28;20446;-85
2022/06/09 04:10:41;;;;;;;4.10;1.93;;;15.50;99.90;;;;;;5029692;28;20449;-86
2022/06/09 04:13:08;;;;;;;4.57;1.70;;;15.60;99.90;;;;;;5046047;28;20473;-84
2022/06/09 04:15:36;;;;;;;2.57;1.40;;;15.60;99.90;;;;;;5048337;28;20477;-85
2022/06/09 04:18:05;;;;;;;3.60;2.30;;;15.70;99.90;;;;;;5031696;28;20451;-85
2022/06/09 04:20:32;;;;;;;5.00;2.50;;;15.70;99.90;;;;;;5031275;28;20441;-85
2022/06/09 04:22:59;;;;;;;3.90;2.57;;;15.70;99.90;;;;;;5024066;28;20565;-85
2022/06/09 04:25:26;;;;;;;4.73;2.40;;;15.80;99.90;;;;;;5026885;28;20445;-85
2022/06/09 04:27:53;;;;;;;3.00;2.00;;;15.80;99.90;;;;;;5031693;28;20437;-84
2022/06/09 04:30:20;;;;;;;2.43;1.77;;;15.80;99.90;;;;;;5024007;28;20438;-85
2022/06/09 04:32:47;;;;;;;3.40;2.13;;;15.80;99.90;;;;;;5028838;28;21011;-85
2022/06/09 04:35:15;;;;;;;3.63;1.70;;;15.90;99.90;;;;;;5023335;28;20477;-85
2022/06/09 04:38:01;;;;;;;2.97;1.80;;;15.90;99.90;;;;;;5020253;28;20441;-85
2022/06/09 04:40:28;;;;;;;4.50;2.10;;;15.80;99.90;;;;;;5020164;28;20445;-84
2022/06/09 04:42:55;;;;;;;5.03;2.30;;;15.80;99.90;;;;;;5027770;28;20910;-88
2022/06/09 04:45:22;;;;;;;6.80;2.40;;;15.80;99.90;;;;;;5030085;28;20805;-88
2022/06/09 04:47:49;;;;;;;15.17;8.93;;;15.90;99.90;;;;;;5024126;28;20427;-87
2022/06/09 04:50:18;;;;;;;3.87;2.20;;;15.90;99.90;;;;;;5038237;28;20449;-87
2022/06/09 04:52:45;;;;;;;2.40;1.90;;;15.90;99.90;;;;;;5017206;28;20450;-88
2022/06/09 04:55:12;;;;;;;4.50;2.00;;;15.90;99.90;;;;;;5018354;28;20483;-88
2022/06/09 04:57:39;;;;;;;5.57;2.10;;;15.90;99.90;;;;;;5017169;28;20462;-88
2022/06/09 05:00:08;;;;;;;5.67;2.20;;;15.90;99.90;;;;;;5028097;28;20502;-87
2022/06/09 05:02:35;;;;;;;3.60;1.60;;;15.90;99.90;;;;;;5020440;28;20458;-88
2022/06/09 05:05:02;;;;;;;4.37;3.13;;;15.80;99.90;;;;;;5015654;28;20920;-88
2022/06/09 05:07:30;;;;;;;5.80;2.20;;;15.90;99.90;;;;;;5014871;28;20778;-88
2022/06/09 05:09:57;;;;;;;7.63;2.23;;;16.00;99.90;;;;;;5015085;28;20457;-88
2022/06/09 05:12:24;;;;;;;3.00;2.20;;;16.00;99.90;;;;;;5015077;28;20442;-88
2022/06/09 05:14:51;;;;;;;3.87;1.73;;;16.00;99.90;;;;;;5014845;28;20452;-88
2022/06/09 05:17:18;;;;;;;2.57;2.07;;;16.10;99.90;;;;;;5014420;28;20833;-88
2022/06/09 05:19:45;;;;;;;5.90;1.70;;;16.10;99.90;;;;;;5020306;28;20446;-88
2022/06/09 05:22:12;;;;;;;5.13;1.83;;;16.10;99.90;;;;;;5016206;28;20482;-88
2022/06/09 05:24:40;;;;;;;2.77;2.00;;;16.10;99.90;;;;;;5014729;28;20473;-88
2022/06/09 05:27:07;;;;;;;3.73;1.70;;;16.10;99.90;;;;;;5036695;28;20477;-87
2022/06/09 05:29:33;;;;;;;4.70;2.00;;;16.10;99.90;;;;;;5036703;28;20438;-88
2022/06/09 05:32:02;;;;;;;3.73;2.40;;;16.10;99.90;;;;;;5032477;28;20426;-87
2022/06/09 05:34:30;;;;;;;2.47;1.50;;;16.30;99.90;;;;;;5037177;28;20463;-88
2022/06/09 05:36:56;;;;;;;5.57;2.00;;;16.80;99.90;;;;;;5017846;28;20987;-88
2022/06/09 05:45:08;;;;;;;3.80;2.03;;;18.90;99.90;;;;;;5013767;28;20472;-86
2022/06/09 05:47:35;;;;;;;2.13;1.50;;;19.40;99.90;;;;;;5014365;28;20455;-86
2022/06/09 05:50:02;;;;;;;3.10;1.70;;;19.90;99.90;;;;;;5014176;28;20434;-87
2022/06/09 05:52:30;;;;;;;3.30;1.30;;;20.10;99.20;;;;;;5014351;28;20821;-87
2022/06/09 05:54:58;;;;;;;3.33;1.90;;;20.40;98.60;;;;;;5013943;28;20494;-87
2022/06/09 05:57:27;;;;;;;4.60;1.90;;;20.70;98.00;;;;;;5014209;28;20442;-87
2022/06/09 05:59:54;;;;;;;4.60;1.30;;;21.10;97.00;;;;;;5023035;28;20454;-87
2022/06/09 06:02:24;;;;;;;2.67;1.40;;;21.90;95.00;;;;;;5026959;28;20448;-87
2022/06/09 06:04:51;;;;;;;2.90;1.57;;;22.10;94.00;;;;;;5020440;28;20456;-88
2022/06/09 06:07:18;;;;;;;4.77;1.63;;;22.50;92.10;;;;;;5026878;28;20461;-86
2022/06/09 06:09:45;;;;;;;4.70;1.83;;;22.80;91.30;;;;;;5035772;28;20454;-87
2022/06/09 06:12:12;;;;;;;3.43;1.60;;;23.20;90.50;;;;;;5015084;28;20438;-87
2022/06/09 06:14:41;;;;;;;3.50;1.10;;;23.80;89.10;;;;;;5015025;28;20468;-87
2022/06/09 06:17:07;;;;;;;4.57;1.97;;;24.20;86.30;;;;;;5014202;28;20904;-88
2022/06/09 06:19:34;;;;;;;4.20;2.27;;;24.50;84.60;;;;;;5014067;28;20449;-87
2022/06/09 06:22:01;;;;;;;5.30;1.90;;;24.70;81.60;;;;;;5013772;28;20956;-87
2022/06/09 06:24:28;;;;;;;4.13;1.60;;;24.80;80.70;;;;;;5014107;28;20514;-88
2022/06/09 06:26:54;;;;;;;3.20;1.70;;;25.30;81.20;;;;;;5015975;28;20438;-86
2022/06/09 06:29:24;;;;;;;3.20;1.30;;;25.10;78.60;;;;;;5037381;28;20451;-86
2022/06/09 06:31:53;;;;;;;6.33;1.90;;;25.20;78.20;;;;;;5037831;28;20453;-86
2022/06/09 06:34:20;;;;;;;4.13;1.53;;;25.20;77.60;;;;;;5037878;28;20488;-87
2022/06/09 06:36:47;;;;;;;4.03;1.70;;;25.10;78.30;;;;;;5034252;28;20497;-87
2022/06/09 06:39:14;;;;;;;2.80;1.33;;;24.80;77.10;;;;;;5031463;28;20453;-86
2022/06/09 06:41:40;;;;;;;6.17;1.90;;;24.90;77.20;;;;;;5016946;28;20451;-87
2022/06/09 06:44:07;;;;;;;7.37;1.90;;;25.60;75.60;;;;;;5016656;28;21003;-88
2022/06/09 06:46:34;;;;;;;2.30;1.47;;;26.50;72.30;;;;;;5018059;28;20438;-88
2022/06/09 06:49:02;;;;;;;4.50;1.73;;;26.70;71.70;;;;;;5016016;28;20457;-87
2022/06/09 06:51:29;;;;;;;3.80;1.50;;;26.10;69.80;;;;;;5015879;28;20817;-87
2022/06/09 06:53:56;;;;;;;2.70;1.33;;;25.30;71.80;;;;;;5016072;28;20465;-87
2022/06/09 06:56:23;;;;;;;4.43;1.40;;;24.40;74.10;;;;;;5018828;28;20481;-87
2022/06/09 06:58:50;;;;;;;4.50;2.00;;;23.90;76.00;;;;;;5018656;28;20963;-87
2022/06/09 07:01:16;;;;;;;7.43;1.67;;;24.00;76.30;;;;;;5018420;28;20441;-88
2022/06/09 07:03:43;;;;;;;3.97;1.27;;;24.00;76.10;;;;;;5028868;28;20462;-87
2022/06/09 07:06:11;;;;;;;3.33;1.50;;;23.80;75.40;;;;;;5035440;28;20464;-87
2022/06/09 07:08:38;;;;;;;4.80;2.07;;;23.70;76.50;;;;;;5035071;28;20450;-87
2022/06/09 07:11:06;;;;;;;3.40;1.43;;;23.20;75.40;;;;;;5016980;28;20446;-87
2022/06/09 07:13:33;;;;;;;4.13;1.50;;;23.30;76.10;;;;;;5013893;28;20476;-88
2022/06/09 07:15:59;;;;;;;5.63;2.20;;;23.10;75.90;;;;;;5014472;28;20867;-88
2022/06/09 07:18:26;;;;;;;3.03;1.53;;;23.40;76.50;;;;;;5014010;28;20453;-88
2022/06/09 07:20:53;;;;;;;5.33;2.00;;;23.70;76.90;;;;;;5018479;28;20438;-87
2022/06/09 07:23:22;;;;;;;6.07;1.70;;;24.70;73.10;;;;;;5034982;28;20477;-88
2022/06/09 07:25:49;;;;;;;2.93;1.27;;;24.40;71.80;;;;;;5019673;28;20827;-88
2022/06/09 07:28:16;;;;;;;8.83;1.83;;;23.50;72.20;;;;;;5014440;28;20938;-88
2022/06/09 07:30:43;;;;;;;5.77;1.70;;;23.40;75.20;;;;;;5014967;28;20504;-88
2022/06/09 07:33:10;;;;;;;6.37;1.73;;;24.00;74.20;;;;;;5014145;28;20481;-88
2022/06/09 07:35:38;;;;;;;3.00;1.40;;;24.40;72.50;;;;;;5015448;28;20528;-87
2022/06/09 07:38:08;;;;;;;3.67;1.90;;;25.00;71.00;;;;;;5016199;28;20442;-88
2022/06/09 07:40:38;;;;;;;4.90;1.70;;;26.10;68.40;;;;;;5014566;28;20448;-88
2022/06/09 07:43:05;;;;;;;12.07;1.87;;;26.20;65.90;;;;;;5027123;28;20567;-88
2022/06/09 07:45:32;;;;;;;4.13;1.30;;;26.40;66.50;;;;;;5040257;28;20429;-87
2022/06/09 07:47:59;;;;;;;4.43;1.50;;;27.10;64.20;;;;;;5040381;28;20446;-87
2022/06/09 07:50:26;;;;;;;3.53;1.97;;;28.10;61.00;;;;;;5028709;28;20449;-87
2022/06/09 07:52:53;;;;;;;4.73;1.73;;;28.90;58.20;;;;;;5038932;28;20448;-88
2022/06/09 07:55:22;;;;;;;5.70;1.70;;;29.50;57.10;;;;;;5020912;28;20457;-88
2022/06/09 07:57:50;;;;;;;6.27;1.70;;;30.20;56.30;;;;;;5018710;28;20793;-88
2022/06/09 08:00:18;;;;;;;7.77;2.17;;;30.20;54.50;;;;;;5017875;28;20549;-88
2022/06/09 08:02:45;;;;;;;4.87;1.80;;;30.70;54.00;;;;;;5018306;28;20474;-88
2022/06/09 08:05:13;;;;;;;3.33;1.40;;;30.50;53.20;;;;;;5035632;28;20469;-88
2022/06/09 08:07:41;;;;;;;2.40;1.27;;;30.30;53.00;;;;;;5038549;28;20438;-87
2022/06/09 08:10:09;;;;;;;3.90;1.47;;;30.70;53.20;;;;;;5035154;28;20458;-88
2022/06/09 08:12:36;;;;;;;6.73;2.17;;;30.60;53.30;;;;;;5029873;28;20446;-88
2022/06/09 08:15:05;;;;;;;3.87;1.40;;;30.20;52.20;;;;;;5038388;28;20441;-88
2022/06/09 08:17:32;;;;;;;4.40;1.90;;;28.90;53.00;;;;;;5029913;28;20851;-88
2022/06/09 08:19:59;;;;;;;8.87;1.50;;;28.40;54.50;;;;;;5017120;28;20451;-88
2022/06/09 08:22:26;;;;;;;4.17;1.40;;;27.70;54.90;;;;;;5017801;28;20456;-88
2022/06/09 08:24:53;;;;;;;5.23;1.53;;;28.20;54.70;;;;;;5017159;28;20942;-88
2022/06/09 08:27:20;;;;;;;4.73;1.70;;;27.80;55.30;;;;;;5016765;28;20552;-88
2022/06/09 08:29:46;;;;;;;4.90;1.67;;;27.90;55.40;;;;;;5015882;28;20962;-88
2022/06/09 08:32:14;;;;;;;3.87;1.60;;;27.30;55.10;;;;;;5017432;28;20481;-88
2022/06/09 08:34:41;;;;;;;4.70;1.57;;;26.70;56.10;;;;;;5016272;28;20480;-88
2022/06/09 08:37:08;;;;;;;7.37;2.20;;;27.00;56.20;;;;;;5016431;28;20485;-88
2022/06/09 08:39:35;;;;;;;4.60;2.03;;;27.20;55.10;;;;;;5017234;28;20457;-88
2022/06/09 08:42:20;;;;;;;5.43;1.87;;;26.70;56.40;;;;;;5015756;28;20452;-88
2022/06/09 08:44:51;;;;;;;3.10;1.30;;;27.70;56.50;;;;;;5017241;28;20477;-88
2022/06/09 08:47:26;;;;;;;4.53;1.50;;;29.50;54.00;;;;;;5031601;28;20450;-88
2022/06/09 08:50:00;;;;;;;4.07;1.47;;;30.80;51.80;;;;;;5022608;28;20442;-87
2022/06/09 08:52:38;;;;;;;3.63;1.50;;;31.70;49.20;;;;;;5015257;28;20447;-87
2022/06/09 08:55:20;;;;;;;5.70;1.50;;;31.30;48.90;;;;;;5017494;28;20442;-88
2022/06/09 08:57:50;;;;;;;3.90;1.63;;;31.70;48.40;;;;;;5016154;28;21029;-88
2022/06/09 09:00:20;;;;;;;3.93;1.50;;;31.60;47.90;;;;;;5015360;28;20541;-88
2022/06/09 09:02:53;;;;;;;3.87;1.87;;;30.20;48.60;;;;;;5015194;28;20484;-88
2022/06/09 09:05:25;;;;;;;3.70;1.43;;;28.40;50.10;;;;;;5017191;28;20453;-87
2022/06/09 09:07:55;;;;;;;4.13;1.50;;;27.00;52.70;;;;;;5032711;28;20415;-88
2022/06/09 09:10:26;;;;;;;3.23;1.47;;;27.70;53.50;;;;;;5019023;28;20458;-88
2022/06/09 09:13:17;;;;;;;5.50;1.33;;;29.10;50.90;;;;;;5035599;28;20460;-88
2022/06/09 09:15:51;;;;;;;3.33;1.23;;;30.00;49.00;;;;;;5024823;28;21072;-87
2022/06/09 09:18:30;;;;;;;2.00;1.00;;;31.10;48.30;;;;;;5014419;28;20438;-88
2022/06/09 09:21:10;;;;;;;2.57;1.60;;;31.90;47.30;;;;;;5015523;28;20909;-88
2022/06/09 09:23:47;;;;;;;2.33;0.90;;;32.70;45.90;;;;;;5014782;28;20461;-88
2022/06/09 09:26:26;;;;;;;5.23;1.60;;;33.30;45.50;;;;;;5014459;28;20438;-88
2022/06/09 09:29:01;;;;;;;4.37;1.57;;;33.70;44.20;;;;;;5014465;28;20461;-89
2022/06/09 09:31:44;;;;;;;4.17;1.87;;;34.50;43.20;;;;;;5014719;28;20453;-89
2022/06/09 09:34:17;;;;;;;3.70;1.30;;;34.70;42.50;;;;;;5039273;22;20496;-85
2022/06/09 09:36:48;;;;;;;4.20;1.60;;;34.90;42.10;;;;;;5033683;28;20507;-85
2022/06/09 09:39:18;;;;;;;3.00;1.20;;;34.00;42.10;;;;;;5034116;28;20450;-85
2022/06/09 09:41:46;;;;;;;5.60;1.53;;;32.60;44.20;;;;;;5034947;28;20441;-84
2022/06/09 09:44:18;;;;;;;5.40;1.47;;;32.40;44.70;;;;;;5035791;28;20814;-84
2022/06/09 09:46:49;;;;;;;5.20;1.20;;;33.60;43.70;;;;;;5037502;28;20445;-85
2022/06/09 09:49:26;;;;;;;3.33;1.70;;;34.60;41.90;;;;;;5040093;28;20445;-85
2022/06/09 09:51:53;;;;;;;4.10;1.50;;;35.20;40.60;;;;;;5038758;28;20823;-85
2022/06/09 09:54:24;;;;;;;4.27;1.77;;;33.90;41.40;;;;;;5039282;28;20473;-84
2022/06/09 09:57:04;;;;;;;2.90;1.00;;;33.60;41.70;;;;;;5043722;28;20473;-85
2022/06/09 09:59:31;;;;;;;2.20;1.07;;;34.80;41.00;;;;;;5042949;28;20453;-85
2022/06/09 10:10:30;;;;;;;2.90;1.27;;;33.80;40.70;;;;;;5037215;28;20437;-84
2022/06/09 10:12:58;;;;;;;3.00;1.37;;;31.50;42.50;;;;;;5037531;28;20933;-84
2022/06/09 10:15:26;;;;;;;5.03;1.30;;;30.30;45.00;;;;;;5038158;28;20460;-85
2022/06/09 10:17:59;;;;;;;3.27;1.20;;;28.90;46.70;;;;;;5037501;28;20481;-85
2022/06/09 10:20:31;;;;;;;2.67;1.40;;;29.50;47.70;;;;;;5037569;28;20456;-85
2022/06/09 10:23:02;;;;;;;3.17;1.20;;;30.90;45.00;;;;;;5037929;28;20448;-85
2022/06/09 10:25:35;;;;;;;3.30;1.33;;;32.60;43.80;;;;;;5035978;28;20449;-85
2022/06/09 10:28:12;;;;;;;3.67;1.53;;;33.90;41.70;;;;;;5035401;28;20452;-86
2022/06/09 10:30:44;;;;;;;2.60;1.33;;;35.10;38.70;;;;;;5034734;28;20448;-86
2022/06/09 10:33:23;;;;;;;2.40;1.20;;;36.60;37.50;;;;;;5033999;28;20479;-86
2022/06/09 10:35:56;;;;;;;3.90;1.50;;;36.90;35.70;;;;;;5033655;28;20444;-86
2022/06/09 10:38:29;;;;;;;3.73;1.57;;;38.30;34.90;;;;;;5039042;28;20492;-85
2022/06/09 10:40:59;;;;;;;4.03;1.33;;;37.80;34.60;;;;;;5040634;28;20452;-85
2022/06/09 10:43:33;;;;;;;5.63;1.57;;;36.80;35.60;;;;;;5035693;28;20468;-85
2022/06/09 10:46:06;;;;;;;4.03;1.60;;;37.20;36.10;;;;;;5034997;28;20453;-84
2022/06/09 10:57:14;;;;;;;2.60;1.10;;;30.10;44.10;;;;;;5040111;28;20479;-86
2022/06/09 10:59:45;;;;;;;4.17;1.53;;;31.30;44.00;;;;;;5042891;28;20441;-85
2022/06/09 11:02:16;;;;;;;5.10;1.57;;;33.40;41.40;;;;;;5035912;28;20499;-85
2022/06/09 11:04:43;;;;;;;4.40;1.80;;;34.80;39.50;;;;;;5035356;28;20469;-88
2022/06/09 11:07:38;;;;;;;3.17;1.67;;;35.50;39.20;;;;;;5056300;28;20449;-86
2022/06/09 11:10:19;;;;;;;4.10;1.63;;;36.80;38.00;;;;;;5056762;28;20467;-83
2022/06/09 11:12:56;;;;;;;3.20;1.50;;;36.70;37.60;;;;;;5054049;28;20445;-84
2022/06/09 11:15:30;;;;;;;2.57;1.20;;;36.10;37.70;;;;;;5050206;28;20508;-85
2022/06/09 11:18:10;;;;;;;3.63;1.70;;;33.60;40.40;;;;;;5052872;28;20480;-84
2022/06/09 11:20:59;;;;;;;4.10;1.30;;;33.30;41.80;;;;;;5047048;28;20449;-84
2022/06/09 11:23:56;;;;;;;3.07;1.30;;;34.10;40.30;;;;;;5047367;28;20473;-85
2022/06/09 11:26:32;;;;;;;4.03;1.80;;;34.70;39.80;;;;;;5042775;28;20503;-85
2022/06/09 11:29:13;;;;;;;4.17;1.40;;;34.80;40.00;;;;;;5050040;28;20440;-83
2022/06/09 11:32:03;;;;;;;2.93;1.50;;;35.60;39.30;;;;;;5048792;28;20975;-84
2022/06/09 11:34:55;;;;;;;3.67;1.20;;;36.30;37.50;;;;;;5039471;28;20512;-81
2022/06/09 11:37:33;;;;;;;3.40;1.40;;;36.80;35.20;;;;;;5046869;28;20543;-83
2022/06/09 11:40:14;;;;;;;2.50;1.10;;;36.40;35.30;;;;;;5045115;28;20456;-83
2022/06/09 11:43:06;;;;;;;3.40;1.60;;;37.00;35.00;;;;;;5037667;28;20457;-83
2022/06/09 11:45:37;;;;;;;4.37;1.70;;;37.00;35.40;;;;;;5035975;28;20868;-84
2022/06/09 11:48:07;;;;;;;2.90;1.30;;;36.90;35.60;;;;;;5037489;28;20445;-85
2022/06/09 11:50:37;;;;;;;2.60;1.30;;;36.90;35.20;;;;;;5038708;28;20843;-84
2022/06/09 11:53:05;;;;;;;3.43;1.77;;;34.70;36.40;;;;;;5037674;28;20453;-85
2022/06/09 11:58:48;;;;;;;3.83;1.67;;;30.00;42.80;;;;;;5043060;28;20847;-84
2022/06/09 12:01:41;;;;;;;3.30;1.60;;;28.80;45.20;;;;;;5057067;28;20444;-84
2022/06/09 12:04:18;;;;;;;3.00;1.10;;;28.60;45.60;;;;;;5047524;28;20464;-82
2022/06/09 12:07:05;;;;;;;2.40;1.40;;;28.30;45.90;;;;;;5024686;28;20457;-82
2022/06/09 12:09:43;;;;;;;3.00;1.17;;;27.80;47.30;;;;;;5017181;28;20845;-82
2022/06/09 12:12:29;;;;;;;5.10;1.40;;;29.50;45.80;;;;;;5017118;28;20798;-82
2022/06/09 12:15:21;;;;;;;3.10;1.30;;;32.20;41.70;;;;;;5016772;28;20830;-83
2022/06/09 12:18:01;;;;;;;2.83;1.17;;;34.00;39.00;;;;;;5016445;28;20481;-83
2022/06/09 12:20:34;;;;;;;4.13;1.67;;;34.80;37.20;;;;;;5016188;28;20456;-84
2022/06/09 12:23:04;;;;;;;5.40;1.90;;;34.10;37.80;;;;;;5016404;28;20496;-83
2022/06/09 12:25:36;;;;;;;5.60;1.87;;;34.10;37.90;;;;;;5016843;28;21093;-82
2022/06/09 12:28:44;;;;;;;5.30;1.67;;;34.70;37.90;;;;;;5016374;28;20450;-83
2022/06/09 12:31:12;;;;;;;2.97;1.60;;;35.30;36.70;;;;;;5027059;28;20469;-83
2022/06/09 12:33:39;;;;;;;3.43;1.60;;;35.90;35.30;;;;;;5018420;28;20473;-84
2022/06/09 12:36:12;;;;;;;2.73;1.30;;;35.10;34.60;;;;;;5017342;28;20974;-83
2022/06/09 12:38:42;;;;;;;4.60;2.50;;;34.80;36.20;;;;;;5016992;28;20482;-83
2022/06/09 12:41:16;;;;;;;3.20;1.60;;;34.40;37.00;;;;;;5024500;28;20476;-82
2022/06/09 12:43:54;;;;;;;3.17;1.30;;;34.30;36.70;;;;;;5025855;28;20867;-83
2022/06/09 12:46:24;;;;;;;2.50;1.40;;;35.10;36.10;;;;;;5034538;28;20442;-83
2022/06/09 12:48:53;;;;;;;4.53;1.40;;;34.70;36.70;;;;;;5033610;28;21082;-82
2022/06/09 12:51:25;;;;;;;4.87;1.30;;;35.40;36.40;;;;;;5028714;28;20442;-84
2022/06/09 12:54:02;;;;;;;2.80;1.40;;;36.50;34.90;;;;;;5017273;28;20465;-84
2022/06/09 12:56:35;;;;;;;3.53;1.47;;;35.50;35.00;;;;;;5018079;28;20441;-84
2022/06/09 12:59:16;;;;;;;2.97;1.40;;;33.70;37.10;;;;;;5020521;28;20489;-83
2022/06/09 13:01:51;;;;;;;2.83;1.30;;;34.10;37.60;;;;;;5017731;28;20797;-84
2022/06/09 13:04:18;;;;;;;3.13;1.30;;;34.70;36.80;;;;;;5019236;28;20526;-84
2022/06/09 13:06:47;;;;;;;5.10;2.30;;;35.10;36.40;;;;;;5022813;28;20441;-82
2022/06/09 13:09:20;;;;;;;5.03;1.30;;;34.20;36.10;;;;;;5021764;28;20449;-85
2022/06/09 13:14:39;;;;;;;2.67;1.80;;;35.50;35.40;;;;;;5017440;28;20496;-84
2022/06/09 13:17:12;;;;;;;4.73;1.63;;;34.90;35.80;;;;;;5021517;28;20462;-84
2022/06/09 13:19:39;;;;;;;1.97;1.30;;;35.30;35.70;;;;;;5021533;28;20807;-83
2022/06/09 13:22:09;;;;;;;4.03;1.37;;;34.60;35.40;;;;;;5024773;28;20877;-84
2022/06/09 13:24:39;;;;;;;3.03;1.67;;;33.30;36.40;;;;;;5021865;28;20462;-84
2022/06/09 13:27:13;;;;;;;2.80;1.67;;;31.90;39.30;;;;;;5019763;28;20446;-84
2022/06/09 13:29:56;;;;;;;2.60;1.20;;;31.40;40.20;;;;;;5016719;28;20865;-84
2022/06/09 13:32:28;;;;;;;3.40;1.40;;;32.30;39.70;;;;;;5016733;28;20461;-84